Time;durP1;ratioP1;P1;durP2;ratioP2;P2;SDS_P1;SDS_P2;PMS_P1;PMS_P2;Temp;Humidity;BMP_temperature;BMP_pressure;BME280_temperature;BME280_humidity;BME280_pressure;Samples;Min_cycle;Max_cycle;Signal;HPM_P1;HPM_P2
2023/07/15 00:03:54;;;;;;;4.17;2.60;;;23.10;30.00;;;;;;10532091;27;20223;-68
2023/07/15 00:08:58;;;;;;;3.13;2.60;;;23.10;29.80;;;;;;10529443;27;20280;-68
2023/07/15 00:14:03;;;;;;;3.27;3.00;;;23.00;29.80;;;;;;10526337;28;20228;-68
2023/07/15 00:19:06;;;;;;;2.50;2.30;;;23.00;30.50;;;;;;10529279;27;20227;-68
2023/07/15 00:24:09;;;;;;;2.90;2.60;;;23.10;30.00;;;;;;10529581;27;20318;-68
2023/07/15 00:29:14;;;;;;;3.03;2.70;;;23.10;30.10;;;;;;10527644;28;20247;-68
2023/07/15 00:34:17;;;;;;;2.80;2.50;;;23.00;30.70;;;;;;10528906;27;20307;-67
2023/07/15 00:39:20;;;;;;;3.57;2.83;;;22.90;30.00;;;;;;10528105;28;20318;-68
2023/07/15 00:44:23;;;;;;;3.90;2.70;;;22.90;30.20;;;;;;10530836;27;20238;-68
2023/07/15 00:49:30;;;;;;;2.77;2.57;;;22.80;30.40;;;;;;10542837;27;20310;-68
2023/07/15 00:54:36;;;;;;;2.70;2.50;;;22.80;31.10;;;;;;10534096;27;20771;-68
2023/07/15 00:59:41;;;;;;;2.90;2.60;;;22.80;31.20;;;;;;10525828;27;20227;-68
2023/07/15 01:04:46;;;;;;;3.10;2.83;;;22.70;30.70;;;;;;10529702;28;20225;-68
2023/07/15 01:09:51;;;;;;;3.97;2.90;;;22.70;31.10;;;;;;10530830;27;20311;-68
2023/07/15 01:14:54;;;;;;;2.90;2.70;;;22.70;30.70;;;;;;10532040;27;20768;-67
2023/07/15 01:19:59;;;;;;;3.57;2.90;;;22.60;30.80;;;;;;10525259;28;20736;-67
2023/07/15 01:25:05;;;;;;;2.90;2.70;;;22.60;32.20;;;;;;10526171;27;20231;-68
2023/07/15 01:30:09;;;;;;;3.03;2.83;;;22.50;31.60;;;;;;10530254;28;20663;-67
2023/07/15 01:35:12;;;;;;;2.83;2.63;;;22.50;31.20;;;;;;10525216;27;20229;-67
2023/07/15 01:40:17;;;;;;;3.23;2.93;;;22.40;31.30;;;;;;10524980;28;20293;-68
2023/07/15 01:45:20;;;;;;;2.70;2.50;;;22.40;31.60;;;;;;10522389;27;20238;-68
2023/07/15 01:50:23;;;;;;;2.97;2.67;;;22.30;31.00;;;;;;10523312;27;20317;-68
2023/07/15 01:55:28;;;;;;;3.30;2.80;;;22.20;31.40;;;;;;10529670;27;20321;-68
2023/07/15 02:00:31;;;;;;;3.43;2.73;;;22.10;32.00;;;;;;10527940;27;20315;-68
2023/07/15 02:05:35;;;;;;;3.27;2.97;;;22.00;31.60;;;;;;10528562;27;20219;-68
2023/07/15 02:10:39;;;;;;;2.97;2.77;;;21.90;32.00;;;;;;10531715;27;20231;-68
2023/07/15 02:15:43;;;;;;;3.07;2.87;;;21.80;32.40;;;;;;10525639;27;20222;-68
2023/07/15 02:20:46;;;;;;;2.57;2.37;;;21.80;32.10;;;;;;10529030;27;20651;-68
2023/07/15 02:25:50;;;;;;;3.20;2.90;;;21.70;32.20;;;;;;10524854;27;20223;-68
2023/07/15 02:30:55;;;;;;;3.10;2.90;;;21.70;33.00;;;;;;10531775;27;20793;-68
2023/07/15 02:35:58;;;;;;;3.20;2.90;;;21.70;32.70;;;;;;10531044;27;20224;-68
2023/07/15 02:41:03;;;;;;;3.13;2.90;;;21.70;32.50;;;;;;10534712;27;20229;-70
2023/07/15 02:46:06;;;;;;;3.10;2.80;;;21.60;32.90;;;;;;10532302;27;20230;-67
2023/07/15 02:51:10;;;;;;;3.50;3.20;;;21.70;32.40;;;;;;10538051;28;20280;-68
2023/07/15 02:56:14;;;;;;;3.40;3.10;;;21.60;32.60;;;;;;10537806;27;20230;-73
2023/07/15 03:01:18;;;;;;;3.27;2.90;;;21.60;32.90;;;;;;10531582;28;20223;-73
2023/07/15 03:06:21;;;;;;;3.27;2.97;;;21.50;32.50;;;;;;10538253;27;20231;-73
2023/07/15 03:11:26;;;;;;;2.67;2.47;;;21.50;32.60;;;;;;10528836;28;20227;-73
2023/07/15 03:16:29;;;;;;;2.83;2.53;;;21.40;33.00;;;;;;10528873;28;20318;-73
2023/07/15 03:21:32;;;;;;;3.07;2.77;;;21.40;32.80;;;;;;10538004;27;20224;-73
2023/07/15 03:26:37;;;;;;;3.03;2.83;;;21.30;32.70;;;;;;10531396;27;20310;-73
2023/07/15 03:31:40;;;;;;;3.03;2.67;;;21.30;33.40;;;;;;10536363;27;20231;-73
2023/07/15 03:36:43;;;;;;;3.43;3.13;;;21.30;33.00;;;;;;10533382;27;20303;-73
2023/07/15 03:41:48;;;;;;;2.87;2.53;;;21.30;33.40;;;;;;10528578;28;20223;-73
2023/07/15 03:46:54;;;;;;;3.70;3.13;;;21.30;33.60;;;;;;10531567;27;20310;-73
2023/07/15 03:51:58;;;;;;;3.47;3.13;;;21.30;33.40;;;;;;10525479;28;20227;-74
2023/07/15 03:57:02;;;;;;;3.80;3.43;;;21.30;33.30;;;;;;10527498;28;20310;-73
2023/07/15 04:02:06;;;;;;;3.93;3.47;;;21.20;34.20;;;;;;10534150;27;20801;-73
2023/07/15 04:07:11;;;;;;;4.43;3.30;;;21.20;33.90;;;;;;10533248;27;20614;-73
2023/07/15 04:12:15;;;;;;;3.73;3.33;;;21.20;34.10;;;;;;10529383;28;20339;-74
2023/07/15 04:17:18;;;;;;;4.43;3.90;;;21.10;34.50;;;;;;10525705;27;20227;-73
2023/07/15 04:22:24;;;;;;;4.53;3.40;;;21.20;34.10;;;;;;10533330;27;20233;-73
2023/07/15 04:27:29;;;;;;;4.13;3.83;;;21.10;34.80;;;;;;10529754;27;20223;-73
2023/07/15 04:32:32;;;;;;;3.97;2.97;;;21.10;34.90;;;;;;10528883;27;20726;-73
2023/07/15 04:37:37;;;;;;;3.97;3.63;;;21.10;34.40;;;;;;10534139;27;20247;-73
2023/07/15 04:42:42;;;;;;;3.87;3.40;;;21.10;34.90;;;;;;10529294;27;20655;-73
2023/07/15 04:47:48;;;;;;;4.63;3.50;;;21.20;35.50;;;;;;10532298;27;20225;-73
2023/07/15 04:52:52;;;;;;;3.90;3.60;;;21.20;35.10;;;;;;10524159;27;20232;-73
2023/07/15 04:57:56;;;;;;;4.10;3.70;;;21.20;36.00;;;;;;10528387;27;20735;-73
2023/07/15 05:03:01;;;;;;;3.33;3.00;;;21.20;36.10;;;;;;10534889;27;20255;-73
2023/07/15 05:08:10;;;;;;;3.67;3.30;;;21.30;35.40;;;;;;10527931;28;20219;-73
2023/07/15 05:13:14;;;;;;;3.90;3.60;;;21.30;36.70;;;;;;10527149;28;20251;-73
2023/07/15 05:18:17;;;;;;;4.07;3.73;;;21.40;36.90;;;;;;10528984;27;20219;-73
2023/07/15 05:23:22;;;;;;;3.83;3.53;;;21.50;36.60;;;;;;10526408;27;20235;-73
2023/07/15 05:28:30;;;;;;;4.13;3.77;;;21.60;36.60;;;;;;10527977;27;20874;-73
2023/07/15 05:33:33;;;;;;;6.57;4.00;;;21.80;37.70;;;;;;10529395;28;20227;-73
2023/07/15 05:38:44;;;;;;;5.90;4.43;;;21.90;37.20;;;;;;10533830;27;20647;-73
2023/07/15 05:43:48;;;;;;;4.70;4.27;;;22.10;38.90;;;;;;10525286;27;20238;-74
2023/07/15 05:48:51;;;;;;;3.83;3.30;;;22.20;38.40;;;;;;10525865;28;20224;-73
2023/07/15 05:53:55;;;;;;;4.83;4.13;;;22.40;38.00;;;;;;10528583;28;20235;-73
2023/07/15 05:58:59;;;;;;;4.30;3.53;;;22.60;38.30;;;;;;10522889;28;20232;-73
2023/07/15 06:04:03;;;;;;;3.60;3.27;;;22.80;39.00;;;;;;10535553;28;20733;-73
2023/07/15 06:09:07;;;;;;;3.87;3.57;;;23.10;39.20;;;;;;10534178;27;20223;-72
2023/07/15 06:14:11;;;;;;;3.37;3.17;;;23.30;39.10;;;;;;10530403;28;20635;-73
2023/07/15 06:19:15;;;;;;;3.47;3.17;;;23.60;39.70;;;;;;10534871;28;20227;-73
2023/07/15 06:24:18;;;;;;;5.27;3.30;;;23.80;39.20;;;;;;10538082;28;20273;-73
2023/07/15 06:29:24;;;;;;;3.67;3.10;;;24.10;39.10;;;;;;10534974;27;20602;-70
2023/07/15 06:34:28;;;;;;;3.77;3.10;;;24.30;39.40;;;;;;10536942;27;20231;-73
2023/07/15 06:39:31;;;;;;;4.77;3.27;;;24.60;38.80;;;;;;10530885;27;20228;-72
2023/07/15 06:44:36;;;;;;;2.93;2.73;;;24.90;38.60;;;;;;10531479;28;20220;-72
2023/07/15 06:49:39;;;;;;;4.10;3.00;;;25.20;38.40;;;;;;10533794;27;20237;-72
2023/07/15 06:54:42;;;;;;;2.93;2.80;;;25.50;38.00;;;;;;10531593;28;20241;-72
2023/07/15 06:59:47;;;;;;;3.67;3.10;;;25.70;37.90;;;;;;10529494;28;20237;-72
2023/07/15 07:04:51;;;;;;;3.43;3.23;;;26.00;37.60;;;;;;10534545;27;20223;-72
2023/07/15 07:09:54;;;;;;;3.30;2.80;;;26.30;37.40;;;;;;10534361;28;20675;-72
2023/07/15 07:14:58;;;;;;;3.30;3.00;;;26.50;36.50;;;;;;10529112;27;20223;-72
2023/07/15 07:20:01;;;;;;;3.20;3.00;;;26.80;36.20;;;;;;10532834;28;20748;-72
2023/07/15 07:25:08;;;;;;;2.93;2.70;;;27.00;35.90;;;;;;10535231;27;20285;-72
2023/07/15 07:30:13;;;;;;;2.93;2.73;;;27.30;35.70;;;;;;10532698;27;20606;-72
2023/07/15 07:35:17;;;;;;;3.67;2.77;;;27.50;35.00;;;;;;10530687;27;20250;-75
2023/07/15 07:40:20;;;;;;;3.00;2.80;;;27.80;34.90;;;;;;10532481;27;20298;-71
2023/07/15 07:45:24;;;;;;;3.10;2.73;;;28.10;34.80;;;;;;10534617;27;20227;-70
2023/07/15 07:50:27;;;;;;;2.83;2.63;;;28.30;34.10;;;;;;10520980;27;20231;-70
2023/07/15 07:55:31;;;;;;;2.60;2.40;;;28.50;33.90;;;;;;10522777;28;20220;-67
2023/07/15 08:00:35;;;;;;;2.73;2.53;;;28.70;33.70;;;;;;10530916;27;20649;-67
2023/07/15 08:05:42;;;;;;;3.97;2.80;;;28.90;32.60;;;;;;10524092;28;20310;-66
2023/07/15 08:10:46;;;;;;;3.37;3.00;;;29.20;31.90;;;;;;10525564;27;20313;-71
2023/07/15 08:15:51;;;;;;;3.60;2.77;;;29.50;31.90;;;;;;10524736;27;20233;-67
2023/07/15 08:20:54;;;;;;;2.80;2.60;;;29.80;31.40;;;;;;10526003;27;20233;-67
2023/07/15 08:25:57;;;;;;;2.70;2.50;;;30.00;31.50;;;;;;10516367;27;20224;-67
2023/07/15 08:31:02;;;;;;;2.70;2.50;;;30.30;31.00;;;;;;10515109;27;20599;-73
2023/07/15 08:36:06;;;;;;;2.50;2.30;;;30.60;29.60;;;;;;10523150;28;20212;-73
2023/07/15 08:53:29;;;;;;;3.30;2.53;;;31.00;31.60;;;;;;10527020;27;20625;-73
2023/07/15 08:58:33;;;;;;;2.50;2.40;;;30.90;29.60;;;;;;10497539;28;20231;-74
2023/07/15 09:03:36;;;;;;;2.83;2.70;;;31.20;29.20;;;;;;10505371;28;20239;-72
2023/07/15 09:08:42;;;;;;;2.60;2.40;;;31.70;28.50;;;;;;10505203;28;20231;-73
2023/07/15 09:13:46;;;;;;;2.50;2.40;;;32.10;26.10;;;;;;10505645;28;20240;-75
2023/07/15 09:18:50;;;;;;;2.73;2.53;;;32.50;26.60;;;;;;10504990;28;20235;-73
2023/07/15 09:23:54;;;;;;;2.47;2.30;;;32.90;25.50;;;;;;10508075;28;20240;-72
2023/07/15 09:28:57;;;;;;;2.30;2.20;;;33.20;24.60;;;;;;10506143;28;20313;-73
2023/07/15 09:34:04;;;;;;;2.30;2.20;;;33.50;25.30;;;;;;10502340;28;20226;-73
2023/07/15 09:39:14;;;;;;;2.33;2.13;;;33.70;23.00;;;;;;10490286;28;20231;-73
2023/07/15 09:44:33;;;;;;;2.80;2.60;;;34.00;22.20;;;;;;10493153;28;20289;-71
2023/07/15 09:49:36;;;;;;;2.07;1.97;;;34.20;23.30;;;;;;10490465;28;21027;-67
2023/07/15 09:54:43;;;;;;;3.07;2.30;;;34.40;23.40;;;;;;10489271;28;20306;-66
2023/07/15 09:59:48;;;;;;;2.57;2.37;;;34.50;22.00;;;;;;10491375;28;20225;-66
2023/07/15 10:04:55;;;;;;;2.10;2.00;;;34.70;22.20;;;;;;10460981;28;20227;-66
2023/07/15 10:10:01;;;;;;;2.40;2.30;;;34.90;21.50;;;;;;10453703;28;20246;-67
2023/07/15 10:15:07;;;;;;;2.50;2.40;;;35.10;20.60;;;;;;10451924;28;20307;-67
2023/07/15 10:20:11;;;;;;;2.23;2.13;;;35.20;20.80;;;;;;10457818;28;20237;-67
2023/07/15 10:25:21;;;;;;;2.30;2.20;;;35.40;20.50;;;;;;10458786;28;20234;-67
2023/07/15 10:30:26;;;;;;;2.33;2.10;;;35.50;19.80;;;;;;10460184;28;20329;-66
2023/07/15 10:35:32;;;;;;;2.50;2.20;;;35.60;19.80;;;;;;10465303;28;20821;-67
2023/07/15 10:40:49;;;;;;;2.40;2.30;;;35.70;18.80;;;;;;10461313;28;20235;-67
2023/07/15 10:45:55;;;;;;;2.37;2.17;;;35.80;18.80;;;;;;10459117;28;20231;-67
2023/07/15 10:51:01;;;;;;;2.43;2.30;;;35.90;18.90;;;;;;10469170;28;20278;-67
2023/07/15 10:56:09;;;;;;;2.40;2.20;;;36.00;18.50;;;;;;10469070;28;20874;-67
2023/07/15 11:01:13;;;;;;;2.03;1.93;;;36.10;17.80;;;;;;10463090;28;20229;-72
2023/07/15 11:06:16;;;;;;;2.03;1.93;;;36.20;18.90;;;;;;10470121;28;20318;-73
2023/07/15 11:11:24;;;;;;;2.43;2.23;;;36.30;18.40;;;;;;10461774;28;20228;-67
2023/07/15 11:16:27;;;;;;;2.47;2.27;;;36.30;17.30;;;;;;10464291;28;20226;-71
2023/07/15 11:21:31;;;;;;;2.87;2.30;;;36.40;18.20;;;;;;10463902;28;20608;-71
2023/07/15 11:26:36;;;;;;;2.90;2.20;;;36.50;17.90;;;;;;10459358;28;20223;-71
2023/07/15 11:31:41;;;;;;;2.00;1.90;;;36.60;16.30;;;;;;10462997;28;20230;-71
2023/07/15 11:36:44;;;;;;;2.10;2.00;;;36.60;17.00;;;;;;10456506;28;20239;-71
2023/07/15 11:41:51;;;;;;;2.40;2.30;;;36.70;17.10;;;;;;10467402;28;20238;-71
2023/07/15 11:46:56;;;;;;;2.30;2.20;;;36.70;15.90;;;;;;10459044;28;20228;-71
2023/07/15 11:52:00;;;;;;;1.90;1.80;;;36.80;15.50;;;;;;10462141;28;20298;-72
2023/07/15 11:57:06;;;;;;;2.00;1.90;;;36.80;16.20;;;;;;10460833;28;20225;-72
2023/07/15 12:02:09;;;;;;;2.07;1.97;;;36.90;15.70;;;;;;10461416;28;20229;-67
2023/07/15 12:07:12;;;;;;;2.20;2.00;;;36.90;16.00;;;;;;10459418;28;20225;-65
2023/07/15 12:12:17;;;;;;;1.97;1.87;;;37.00;15.80;;;;;;10463316;28;20274;-68
2023/07/15 12:17:20;;;;;;;2.00;1.90;;;37.20;15.50;;;;;;10458944;28;20767;-67
2023/07/15 12:22:23;;;;;;;2.20;2.10;;;37.20;15.60;;;;;;10459934;28;20705;-67
2023/07/15 12:27:28;;;;;;;2.20;2.10;;;37.20;15.30;;;;;;10459507;28;20282;-67
2023/07/15 12:32:31;;;;;;;3.87;2.10;;;37.20;14.30;;;;;;10461887;28;20230;-67
2023/07/15 12:37:35;;;;;;;2.10;1.97;;;37.20;14.90;;;;;;10462369;28;20232;-67
2023/07/15 12:42:40;;;;;;;2.20;2.10;;;37.10;14.30;;;;;;10457171;28;20235;-67
2023/07/15 12:47:43;;;;;;;3.63;2.20;;;37.20;14.30;;;;;;10458438;28;20239;-66
2023/07/15 12:52:46;;;;;;;2.00;1.90;;;37.30;14.30;;;;;;10462150;28;20232;-67
2023/07/15 12:57:51;;;;;;;2.13;2.03;;;37.30;14.30;;;;;;10455783;28;20232;-73
2023/07/15 13:02:54;;;;;;;2.30;2.20;;;37.30;14.00;;;;;;10471631;28;20578;-72
2023/07/15 13:07:58;;;;;;;4.77;2.70;;;37.40;14.40;;;;;;10465619;28;20236;-73
2023/07/15 13:13:02;;;;;;;3.33;2.55;;;37.40;14.40;;;;;;10456079;28;20382;-72
2023/07/15 13:18:06;;;;;;;1.90;1.80;;;37.40;13.70;;;;;;10410388;28;20233;-72
2023/07/15 13:23:09;;;;;;;2.23;2.00;;;37.40;14.30;;;;;;10419161;28;20330;-72
2023/07/15 13:28:14;;;;;;;2.00;1.90;;;37.50;13.90;;;;;;10419875;28;20238;-67
2023/07/15 13:33:21;;;;;;;2.30;2.20;;;37.60;13.30;;;;;;10415482;28;20685;-72
2023/07/15 13:38:25;;;;;;;2.38;1.92;;;37.60;13.60;;;;;;10422327;28;20289;-70
2023/07/15 13:43:30;;;;;;;2.20;2.10;;;37.70;13.50;;;;;;10418236;28;20257;-70
2023/07/15 13:48:33;;;;;;;2.10;2.00;;;37.80;13.10;;;;;;10423714;28;20228;-67
2023/07/15 13:53:36;;;;;;;2.20;2.10;;;37.80;13.20;;;;;;10420872;28;20238;-68
2023/07/15 13:58:41;;;;;;;2.30;2.20;;;37.80;13.00;;;;;;10427850;28;20904;-67
2023/07/15 14:03:44;;;;;;;2.20;2.10;;;37.80;13.00;;;;;;10417225;28;20236;-70
2023/07/15 14:08:47;;;;;;;2.95;2.17;;;37.80;13.10;;;;;;10422697;28;20226;-69
2023/07/15 14:13:52;;;;;;;2.20;2.10;;;37.90;12.60;;;;;;10425882;28;20320;-70
2023/07/15 14:18:55;;;;;;;2.13;2.03;;;37.80;12.40;;;;;;10429826;28;20700;-73
2023/07/15 14:23:58;;;;;;;2.17;2.08;;;37.80;12.50;;;;;;10455913;28;20643;-74
2023/07/15 14:29:04;;;;;;;2.30;2.20;;;37.80;12.50;;;;;;10423964;28;20233;-72
2023/07/15 14:34:07;;;;;;;3.22;2.60;;;37.80;12.10;;;;;;10422431;28;20228;-71
2023/07/15 14:39:11;;;;;;;2.60;2.40;;;37.80;12.20;;;;;;10416189;28;20234;-71
2023/07/15 14:44:15;;;;;;;2.40;2.20;;;37.90;12.30;;;;;;10420936;28;20224;-71
2023/07/15 14:49:20;;;;;;;2.30;2.20;;;37.90;12.10;;;;;;10420277;28;20703;-67
2023/07/15 14:54:27;;;;;;;2.35;2.20;;;38.00;12.30;;;;;;10420167;28;20255;-68
2023/07/15 14:59:32;;;;;;;2.42;2.33;;;38.10;12.20;;;;;;10426473;28;20240;-68
2023/07/15 15:04:35;;;;;;;2.10;2.00;;;38.10;12.00;;;;;;10417848;28;20230;-68
2023/07/15 15:09:38;;;;;;;2.58;2.40;;;38.00;12.30;;;;;;10420714;28;20313;-67
2023/07/15 15:14:43;;;;;;;2.40;2.30;;;38.00;12.00;;;;;;10422056;28;20739;-67
2023/07/15 15:19:46;;;;;;;2.28;2.10;;;38.10;11.80;;;;;;10418833;28;20345;-68
2023/07/15 15:24:49;;;;;;;2.28;2.17;;;38.10;11.90;;;;;;10424648;28;21045;-67
2023/07/15 15:29:54;;;;;;;2.42;2.10;;;38.10;12.20;;;;;;10425752;28;20249;-74
2023/07/15 15:34:57;;;;;;;2.20;2.10;;;38.20;11.50;;;;;;10442344;28;20780;-74
2023/07/15 15:40:00;;;;;;;2.50;2.30;;;38.20;11.70;;;;;;10441147;28;20786;-74
2023/07/15 15:45:06;;;;;;;2.47;2.38;;;38.20;11.60;;;;;;10469289;28;20214;-74
2023/07/15 15:50:10;;;;;;;2.20;2.10;;;38.20;11.40;;;;;;10459145;28;20941;-67
2023/07/15 15:55:13;;;;;;;2.42;2.33;;;38.30;11.50;;;;;;10459055;28;20228;-67
2023/07/15 16:00:20;;;;;;;2.30;2.20;;;38.30;11.40;;;;;;10456361;28;20240;-72
2023/07/15 16:05:23;;;;;;;2.28;2.17;;;38.40;11.20;;;;;;10451039;28;20745;-72
2023/07/15 16:10:26;;;;;;;2.20;2.10;;;38.40;11.40;;;;;;10470253;28;20238;-74
2023/07/15 16:15:31;;;;;;;2.10;2.00;;;38.30;11.60;;;;;;10473947;28;20227;-74
2023/07/15 16:20:36;;;;;;;2.33;2.22;;;38.40;11.20;;;;;;10470851;28;20234;-74
2023/07/15 16:25:39;;;;;;;2.20;2.10;;;38.40;11.10;;;;;;10473610;28;20242;-71
2023/07/15 16:30:44;;;;;;;2.35;2.25;;;38.30;11.00;;;;;;10455308;28;20325;-71
2023/07/15 16:35:47;;;;;;;2.35;2.17;;;38.40;10.90;;;;;;10463459;28;20247;-71
2023/07/15 16:40:50;;;;;;;2.10;2.00;;;38.40;10.90;;;;;;10455737;28;20245;-72
2023/07/15 16:45:55;;;;;;;2.40;2.30;;;38.40;10.80;;;;;;10457329;28;20243;-72
2023/07/15 16:50:58;;;;;;;2.40;2.30;;;38.40;10.60;;;;;;10460463;28;20325;-72
2023/07/15 16:56:01;;;;;;;2.50;2.40;;;38.30;10.90;;;;;;10464348;28;20245;-71
2023/07/15 17:01:06;;;;;;;2.45;2.30;;;38.20;10.80;;;;;;10469101;28;20218;-75
2023/07/15 17:06:09;;;;;;;2.47;2.20;;;38.10;10.90;;;;;;10463087;28;20227;-71
2023/07/15 17:11:13;;;;;;;2.10;2.00;;;38.10;10.90;;;;;;10439340;28;20233;-71
2023/07/15 17:16:18;;;;;;;3.15;2.25;;;38.10;11.00;;;;;;10423412;28;20274;-71
2023/07/15 17:21:21;;;;;;;2.70;2.50;;;38.10;10.90;;;;;;10425772;28;20231;-67
2023/07/15 17:26:24;;;;;;;4.30;4.00;;;38.00;11.10;;;;;;10423690;28;20230;-68
2023/07/15 17:31:28;;;;;;;2.90;2.70;;;38.00;11.30;;;;;;10422936;28;20289;-67
2023/07/15 17:36:32;;;;;;;2.47;2.38;;;38.00;11.80;;;;;;10416372;28;20226;-73
2023/07/15 17:41:35;;;;;;;2.90;2.70;;;38.00;11.80;;;;;;10426074;28;20234;-72
2023/07/15 17:46:39;;;;;;;2.80;2.60;;;37.90;11.80;;;;;;10426954;28;20325;-72
2023/07/15 17:51:42;;;;;;;2.50;2.30;;;37.70;11.80;;;;;;10423681;28;20863;-72
2023/07/15 17:56:46;;;;;;;2.42;2.30;;;37.50;12.10;;;;;;10425402;28;20704;-72
2023/07/15 18:01:50;;;;;;;2.97;2.67;;;37.40;12.60;;;;;;10425149;28;20312;-72
2023/07/15 18:06:54;;;;;;;2.63;2.50;;;37.40;12.20;;;;;;10426098;28;20226;-72
2023/07/15 18:11:57;;;;;;;2.20;2.10;;;37.40;12.50;;;;;;10420815;28;20240;-72
2023/07/15 18:17:01;;;;;;;2.63;2.53;;;37.30;14.30;;;;;;10416274;28;20638;-72
2023/07/15 18:22:05;;;;;;;3.20;2.80;;;37.30;14.90;;;;;;10419329;28;20222;-72
2023/07/15 18:27:08;;;;;;;2.50;2.40;;;37.30;15.00;;;;;;10419866;28;20217;-68
2023/07/15 18:32:13;;;;;;;2.70;2.50;;;37.20;15.00;;;;;;10417786;28;20230;-72
2023/07/15 18:37:16;;;;;;;2.80;2.60;;;37.10;14.20;;;;;;10422877;28;20217;-72
2023/07/15 18:42:20;;;;;;;4.43;2.30;;;37.00;15.00;;;;;;10412797;28;20606;-72
2023/07/15 18:47:24;;;;;;;3.03;2.50;;;36.90;15.50;;;;;;10415337;28;20224;-72
2023/07/15 18:52:27;;;;;;;2.43;2.27;;;36.70;16.20;;;;;;10417515;28;20227;-72
2023/07/15 18:57:31;;;;;;;3.10;2.80;;;36.60;16.00;;;;;;10435636;28;20228;-73
2023/07/15 19:02:35;;;;;;;2.70;2.50;;;36.40;16.00;;;;;;10427657;28;20715;-72
2023/07/15 19:07:38;;;;;;;2.60;2.40;;;36.10;16.50;;;;;;10417512;28;20230;-72
2023/07/15 19:12:42;;;;;;;3.23;3.03;;;35.90;16.60;;;;;;10410927;28;20233;-72
2023/07/15 19:17:46;;;;;;;3.27;3.03;;;35.80;16.80;;;;;;10415371;28;20233;-72
2023/07/15 19:22:50;;;;;;;3.13;2.87;;;35.60;17.10;;;;;;10418045;28;20263;-72
2023/07/15 19:27:53;;;;;;;3.20;3.00;;;35.40;17.00;;;;;;10423524;28;20714;-72
2023/07/15 19:32:58;;;;;;;3.97;3.67;;;35.20;17.20;;;;;;10415014;28;20242;-72
2023/07/15 19:38:01;;;;;;;5.10;3.43;;;35.00;17.70;;;;;;10420575;28;20232;-68
2023/07/15 19:43:05;;;;;;;4.23;3.20;;;34.90;17.80;;;;;;10418700;28;20225;-73
2023/07/15 19:48:10;;;;;;;2.90;2.70;;;34.70;17.90;;;;;;10418568;28;20233;-72
2023/07/15 19:53:13;;;;;;;3.20;3.00;;;34.50;17.00;;;;;;10408407;28;21050;-72
2023/07/15 19:58:16;;;;;;;4.37;2.80;;;34.30;17.00;;;;;;10412862;28;20225;-72
2023/07/15 20:03:21;;;;;;;3.20;2.90;;;34.00;17.10;;;;;;10412696;28;20234;-72
2023/07/15 20:08:24;;;;;;;3.33;3.13;;;33.60;17.80;;;;;;10412220;28;21270;-72
2023/07/15 20:13:27;;;;;;;4.13;2.77;;;33.40;17.60;;;;;;10418199;28;20319;-72
2023/07/15 20:18:32;;;;;;;3.30;2.63;;;33.30;17.70;;;;;;10411035;28;20225;-72
2023/07/15 20:23:35;;;;;;;3.27;3.07;;;33.20;18.00;;;;;;10411170;28;20242;-72
2023/07/15 20:28:38;;;;;;;2.93;2.73;;;33.10;18.10;;;;;;10414044;28;20239;-72
2023/07/15 20:33:43;;;;;;;3.20;2.90;;;33.00;18.20;;;;;;10416460;28;20235;-73
2023/07/15 20:38:46;;;;;;;4.03;3.20;;;33.00;18.70;;;;;;10413215;28;20226;-72
2023/07/15 20:43:49;;;;;;;7.20;3.70;;;32.90;18.60;;;;;;10419503;28;20239;-72
2023/07/15 20:48:54;;;;;;;4.27;2.93;;;32.80;18.40;;;;;;10410369;28;20226;-72
2023/07/15 20:53:57;;;;;;;3.00;2.80;;;32.80;18.80;;;;;;10417034;28;20733;-72
2023/07/15 20:59:00;;;;;;;3.30;3.10;;;32.70;18.90;;;;;;10421121;28;20238;-72
2023/07/15 21:04:05;;;;;;;3.20;2.97;;;32.60;19.00;;;;;;10419720;28;20316;-72
2023/07/15 21:09:08;;;;;;;3.30;3.03;;;32.40;19.40;;;;;;10415266;28;20246;-72
2023/07/15 21:14:11;;;;;;;4.70;3.00;;;32.30;19.50;;;;;;10425437;28;20390;-72
2023/07/15 21:19:16;;;;;;;3.47;3.03;;;32.20;19.50;;;;;;10408799;28;20312;-72
2023/07/15 21:24:19;;;;;;;3.27;2.97;;;32.10;19.50;;;;;;10408983;28;20241;-72
2023/07/15 21:29:23;;;;;;;3.13;2.93;;;32.00;19.50;;;;;;10405042;28;20709;-72
2023/07/15 21:34:27;;;;;;;5.43;3.00;;;31.80;19.70;;;;;;10411785;28;20311;-72
2023/07/15 21:39:31;;;;;;;5.13;3.30;;;31.70;20.00;;;;;;10412828;28;20736;-72
2023/07/15 21:44:34;;;;;;;3.80;3.30;;;31.60;19.80;;;;;;10417309;28;20225;-72
2023/07/15 21:49:38;;;;;;;3.27;3.03;;;31.40;20.10;;;;;;10415901;28;20229;-72
2023/07/15 21:54:41;;;;;;;4.97;3.47;;;31.10;20.80;;;;;;10418036;28;20240;-72
2023/07/15 21:59:45;;;;;;;3.90;3.40;;;30.80;21.30;;;;;;10422960;28;20232;-72
2023/07/15 22:04:49;;;;;;;4.37;3.50;;;30.50;21.70;;;;;;10425017;28;20239;-72
2023/07/15 22:09:52;;;;;;;5.20;3.60;;;30.10;22.80;;;;;;10423357;28;20298;-72
2023/07/15 22:14:55;;;;;;;4.97;3.57;;;29.70;23.10;;;;;;10422894;28;20233;-71
2023/07/15 22:20:00;;;;;;;4.30;4.00;;;29.40;23.90;;;;;;10420264;28;20233;-71
2023/07/15 22:25:03;;;;;;;4.00;3.70;;;29.10;24.80;;;;;;10423654;28;20233;-71
2023/07/15 22:30:08;;;;;;;3.97;3.67;;;28.90;24.60;;;;;;10417558;28;20243;-71
2023/07/15 22:35:12;;;;;;;3.60;3.33;;;28.80;25.10;;;;;;10424758;28;20325;-71
2023/07/15 22:40:16;;;;;;;5.30;3.70;;;28.70;25.50;;;;;;10419848;28;20229;-71
2023/07/15 22:45:19;;;;;;;3.70;3.40;;;28.60;25.00;;;;;;10429451;28;20742;-71
2023/07/15 22:50:23;;;;;;;5.40;3.83;;;28.60;25.10;;;;;;10424122;28;20244;-71
2023/07/15 22:55:26;;;;;;;4.17;3.70;;;28.60;25.80;;;;;;10423043;28;20233;-71
2023/07/15 23:00:30;;;;;;;3.57;3.23;;;28.60;25.40;;;;;;10421252;28;20743;-71
2023/07/15 23:05:34;;;;;;;4.17;3.60;;;28.60;25.40;;;;;;10421062;28;20879;-71
2023/07/15 23:10:39;;;;;;;3.57;3.27;;;28.50;25.90;;;;;;10424940;28;20233;-71
2023/07/15 23:15:42;;;;;;;3.93;3.57;;;28.40;25.40;;;;;;10421989;28;20673;-71
2023/07/15 23:20:46;;;;;;;3.60;3.30;;;28.40;25.70;;;;;;10417908;28;20941;-71
2023/07/15 23:25:50;;;;;;;3.67;3.37;;;28.30;26.10;;;;;;10422165;28;20240;-71
2023/07/15 23:30:54;;;;;;;3.40;3.10;;;28.20;26.10;;;;;;10419649;28;20244;-71
2023/07/15 23:35:59;;;;;;;3.40;3.10;;;28.10;26.30;;;;;;10423320;28;20229;-71
2023/07/15 23:41:03;;;;;;;4.70;3.50;;;27.90;27.20;;;;;;10413854;28;20323;-71
2023/07/15 23:46:06;;;;;;;3.37;3.00;;;27.70;27.60;;;;;;10417948;28;22668;-71
2023/07/15 23:51:10;;;;;;;3.80;3.43;;;27.40;27.50;;;;;;10420919;28;20231;-71
2023/07/15 23:56:14;;;;;;;3.63;3.33;;;27.30;28.40;;;;;;10418231;28;20982;-71
